sensor_id;sensor_type;location;lat;lon;timestamp;P1;durP1;ratioP1;P2;durP2;ratioP2
20890;SDS011;10605;52.968;8.844;2022-08-23T00:01:11;2.33;;;2.03;;
20890;SDS011;10605;52.968;8.844;2022-08-23T00:03:39;3.58;;;2.10;;
20890;SDS011;10605;52.968;8.844;2022-08-23T00:06:06;2.75;;;2.13;;
20890;SDS011;10605;52.968;8.844;2022-08-23T00:08:32;6.97;;;2.65;;
20890;SDS011;10605;52.968;8.844;2022-08-23T00:10:58;6.60;;;2.47;;
20890;SDS011;10605;52.968;8.844;2022-08-23T00:13:24;5.57;;;2.65;;
20890;SDS011;10605;52.968;8.844;2022-08-23T00:15:51;4.10;;;2.58;;
20890;SDS011;10605;52.968;8.844;2022-08-23T00:18:17;5.57;;;2.63;;
20890;SDS011;10605;52.968;8.844;2022-08-23T00:20:44;8.18;;;2.20;;
20890;SDS011;10605;52.968;8.844;2022-08-23T00:23:11;5.43;;;2.42;;
20890;SDS011;10605;52.968;8.844;2022-08-23T00:25:36;3.38;;;2.50;;
20890;SDS011;10605;52.968;8.844;2022-08-23T00:28:02;3.70;;;2.28;;
20890;SDS011;10605;52.968;8.844;2022-08-23T00:30:28;2.90;;;2.60;;
20890;SDS011;10605;52.968;8.844;2022-08-23T00:32:53;3.03;;;2.58;;
20890;SDS011;10605;52.968;8.844;2022-08-23T00:35:19;4.57;;;2.10;;
20890;SDS011;10605;52.968;8.844;2022-08-23T00:37:45;2.72;;;2.53;;
20890;SDS011;10605;52.968;8.844;2022-08-23T00:40:12;5.00;;;2.50;;
20890;SDS011;10605;52.968;8.844;2022-08-23T00:42:41;7.65;;;2.67;;
20890;SDS011;10605;52.968;8.844;2022-08-23T00:45:30;6.40;;;2.70;;
20890;SDS011;10605;52.968;8.844;2022-08-23T00:48:22;3.28;;;2.53;;
20890;SDS011;10605;52.968;8.844;2022-08-23T00:50:49;3.15;;;2.85;;
20890;SDS011;10605;52.968;8.844;2022-08-23T00:53:31;5.95;;;2.50;;
20890;SDS011;10605;52.968;8.844;2022-08-23T00:56:01;4.18;;;2.70;;
20890;SDS011;10605;52.968;8.844;2022-08-23T00:58:30;4.65;;;2.55;;
20890;SDS011;10605;52.968;8.844;2022-08-23T01:00:56;6.18;;;2.28;;
20890;SDS011;10605;52.968;8.844;2022-08-23T01:03:25;4.07;;;2.35;;
20890;SDS011;10605;52.968;8.844;2022-08-23T01:08:27;3.10;;;2.45;;
20890;SDS011;10605;52.968;8.844;2022-08-23T01:10:57;3.65;;;2.67;;
20890;SDS011;10605;52.968;8.844;2022-08-23T01:13:46;6.05;;;2.75;;
20890;SDS011;10605;52.968;8.844;2022-08-23T01:19:10;3.35;;;2.60;;
20890;SDS011;10605;52.968;8.844;2022-08-23T01:21:52;6.57;;;2.40;;
20890;SDS011;10605;52.968;8.844;2022-08-23T01:24:28;8.20;;;3.03;;
20890;SDS011;10605;52.968;8.844;2022-08-23T01:26:55;7.82;;;3.03;;
20890;SDS011;10605;52.968;8.844;2022-08-23T01:29:21;6.13;;;2.47;;
20890;SDS011;10605;52.968;8.844;2022-08-23T01:31:46;4.72;;;2.95;;
20890;SDS011;10605;52.968;8.844;2022-08-23T01:34:13;5.93;;;2.28;;
20890;SDS011;10605;52.968;8.844;2022-08-23T01:36:41;4.40;;;2.72;;
20890;SDS011;10605;52.968;8.844;2022-08-23T01:39:08;6.90;;;3.22;;
20890;SDS011;10605;52.968;8.844;2022-08-23T01:41:33;6.10;;;2.67;;
20890;SDS011;10605;52.968;8.844;2022-08-23T01:44:02;6.30;;;2.67;;
20890;SDS011;10605;52.968;8.844;2022-08-23T01:46:30;4.35;;;2.65;;
20890;SDS011;10605;52.968;8.844;2022-08-23T01:48:59;7.47;;;2.97;;
20890;SDS011;10605;52.968;8.844;2022-08-23T01:51:24;8.00;;;2.53;;
20890;SDS011;10605;52.968;8.844;2022-08-23T01:53:50;5.20;;;2.47;;
20890;SDS011;10605;52.968;8.844;2022-08-23T01:56:16;4.43;;;2.55;;
20890;SDS011;10605;52.968;8.844;2022-08-23T01:58:44;3.13;;;2.58;;
20890;SDS011;10605;52.968;8.844;2022-08-23T02:01:10;3.17;;;2.80;;
20890;SDS011;10605;52.968;8.844;2022-08-23T02:03:36;6.97;;;2.35;;
20890;SDS011;10605;52.968;8.844;2022-08-23T02:06:02;5.97;;;2.75;;
20890;SDS011;10605;52.968;8.844;2022-08-23T02:08:28;6.55;;;2.70;;
20890;SDS011;10605;52.968;8.844;2022-08-23T02:11:16;5.93;;;3.17;;
20890;SDS011;10605;52.968;8.844;2022-08-23T02:13:46;7.22;;;2.42;;
20890;SDS011;10605;52.968;8.844;2022-08-23T02:16:12;3.67;;;2.90;;
20890;SDS011;10605;52.968;8.844;2022-08-23T02:18:44;7.90;;;2.95;;
20890;SDS011;10605;52.968;8.844;2022-08-23T02:21:11;4.20;;;2.90;;
20890;SDS011;10605;52.968;8.844;2022-08-23T02:23:36;11.20;;;2.60;;
20890;SDS011;10605;52.968;8.844;2022-08-23T02:26:02;5.82;;;3.10;;
20890;SDS011;10605;52.968;8.844;2022-08-23T02:28:28;4.90;;;2.53;;
20890;SDS011;10605;52.968;8.844;2022-08-23T02:30:53;4.18;;;2.72;;
20890;SDS011;10605;52.968;8.844;2022-08-23T02:33:19;3.72;;;2.65;;
20890;SDS011;10605;52.968;8.844;2022-08-23T02:35:45;7.78;;;3.00;;
20890;SDS011;10605;52.968;8.844;2022-08-23T02:38:11;4.05;;;2.33;;
20890;SDS011;10605;52.968;8.844;2022-08-23T02:40:42;6.03;;;2.80;;
20890;SDS011;10605;52.968;8.844;2022-08-23T02:43:08;17.85;;;2.45;;
20890;SDS011;10605;52.968;8.844;2022-08-23T02:45:34;5.32;;;2.80;;
20890;SDS011;10605;52.968;8.844;2022-08-23T02:48:00;4.80;;;2.70;;
20890;SDS011;10605;52.968;8.844;2022-08-23T02:50:27;6.93;;;2.65;;
20890;SDS011;10605;52.968;8.844;2022-08-23T02:52:53;3.13;;;2.80;;
20890;SDS011;10605;52.968;8.844;2022-08-23T02:55:20;3.22;;;2.90;;
20890;SDS011;10605;52.968;8.844;2022-08-23T02:57:45;5.95;;;2.63;;
20890;SDS011;10605;52.968;8.844;2022-08-23T03:00:11;3.72;;;2.78;;
20890;SDS011;10605;52.968;8.844;2022-08-23T03:02:38;4.35;;;3.03;;
20890;SDS011;10605;52.968;8.844;2022-08-23T03:05:05;7.22;;;2.53;;
20890;SDS011;10605;52.968;8.844;2022-08-23T03:07:32;5.18;;;2.80;;
20890;SDS011;10605;52.968;8.844;2022-08-23T03:09:57;4.38;;;2.88;;
20890;SDS011;10605;52.968;8.844;2022-08-23T03:12:23;5.43;;;2.65;;
20890;SDS011;10605;52.968;8.844;2022-08-23T03:14:51;5.82;;;3.20;;
20890;SDS011;10605;52.968;8.844;2022-08-23T03:17:17;4.07;;;3.00;;
20890;SDS011;10605;52.968;8.844;2022-08-23T03:19:43;5.93;;;2.83;;
20890;SDS011;10605;52.968;8.844;2022-08-23T03:22:08;4.75;;;2.97;;
20890;SDS011;10605;52.968;8.844;2022-08-23T03:24:34;4.18;;;2.55;;
20890;SDS011;10605;52.968;8.844;2022-08-23T03:27:00;3.70;;;3.08;;
20890;SDS011;10605;52.968;8.844;2022-08-23T03:29:27;6.05;;;3.40;;
20890;SDS011;10605;52.968;8.844;2022-08-23T03:31:52;4.95;;;3.30;;
20890;SDS011;10605;52.968;8.844;2022-08-23T03:34:18;5.10;;;3.10;;
20890;SDS011;10605;52.968;8.844;2022-08-23T03:36:44;2.85;;;2.65;;
20890;SDS011;10605;52.968;8.844;2022-08-23T03:39:10;5.57;;;3.25;;
20890;SDS011;10605;52.968;8.844;2022-08-23T03:41:36;2.83;;;2.63;;
20890;SDS011;10605;52.968;8.844;2022-08-23T03:44:02;5.93;;;3.03;;
20890;SDS011;10605;52.968;8.844;2022-08-23T03:46:27;5.28;;;3.10;;
20890;SDS011;10605;52.968;8.844;2022-08-23T03:48:54;5.55;;;3.30;;
20890;SDS011;10605;52.968;8.844;2022-08-23T03:51:23;8.85;;;2.83;;
20890;SDS011;10605;52.968;8.844;2022-08-23T03:53:51;5.05;;;3.38;;
20890;SDS011;10605;52.968;8.844;2022-08-23T03:56:25;3.65;;;3.15;;
20890;SDS011;10605;52.968;8.844;2022-08-23T03:58:53;13.02;;;3.60;;
20890;SDS011;10605;52.968;8.844;2022-08-23T04:01:19;4.95;;;3.33;;
20890;SDS011;10605;52.968;8.844;2022-08-23T04:03:45;10.18;;;3.53;;
20890;SDS011;10605;52.968;8.844;2022-08-23T04:06:14;4.18;;;3.20;;
20890;SDS011;10605;52.968;8.844;2022-08-23T04:08:44;10.88;;;3.60;;
20890;SDS011;10605;52.968;8.844;2022-08-23T04:11:10;4.20;;;3.22;;
20890;SDS011;10605;52.968;8.844;2022-08-23T04:13:40;6.25;;;3.40;;
20890;SDS011;10605;52.968;8.844;2022-08-23T04:16:07;9.88;;;3.22;;
20890;SDS011;10605;52.968;8.844;2022-08-23T04:18:33;6.28;;;3.20;;
20890;SDS011;10605;52.968;8.844;2022-08-23T04:21:01;8.43;;;3.50;;
20890;SDS011;10605;52.968;8.844;2022-08-23T04:23:30;4.35;;;3.63;;
20890;SDS011;10605;52.968;8.844;2022-08-23T04:25:56;6.68;;;3.53;;
20890;SDS011;10605;52.968;8.844;2022-08-23T04:28:22;6.57;;;3.15;;
20890;SDS011;10605;52.968;8.844;2022-08-23T04:30:49;5.13;;;3.38;;
20890;SDS011;10605;52.968;8.844;2022-08-23T04:33:15;7.65;;;2.90;;
20890;SDS011;10605;52.968;8.844;2022-08-23T04:35:42;10.77;;;3.05;;
20890;SDS011;10605;52.968;8.844;2022-08-23T04:38:08;7.80;;;3.70;;
20890;SDS011;10605;52.968;8.844;2022-08-23T04:40:34;5.35;;;3.13;;
20890;SDS011;10605;52.968;8.844;2022-08-23T04:43:18;4.28;;;3.63;;
20890;SDS011;10605;52.968;8.844;2022-08-23T04:45:44;7.65;;;3.25;;
20890;SDS011;10605;52.968;8.844;2022-08-23T04:48:11;7.05;;;3.22;;
20890;SDS011;10605;52.968;8.844;2022-08-23T04:50:37;6.75;;;3.40;;
20890;SDS011;10605;52.968;8.844;2022-08-23T04:53:04;3.78;;;3.20;;
20890;SDS011;10605;52.968;8.844;2022-08-23T04:55:29;5.03;;;3.30;;
20890;SDS011;10605;52.968;8.844;2022-08-23T04:57:55;4.88;;;3.30;;
20890;SDS011;10605;52.968;8.844;2022-08-23T05:00:21;4.32;;;3.20;;
20890;SDS011;10605;52.968;8.844;2022-08-23T05:02:46;5.05;;;3.40;;
20890;SDS011;10605;52.968;8.844;2022-08-23T05:05:12;6.80;;;3.45;;
20890;SDS011;10605;52.968;8.844;2022-08-23T05:07:38;6.72;;;3.20;;
20890;SDS011;10605;52.968;8.844;2022-08-23T05:10:05;8.23;;;3.05;;
20890;SDS011;10605;52.968;8.844;2022-08-23T05:12:31;11.48;;;3.25;;
20890;SDS011;10605;52.968;8.844;2022-08-23T05:14:57;6.60;;;3.35;;
20890;SDS011;10605;52.968;8.844;2022-08-23T05:17:24;6.43;;;2.80;;
20890;SDS011;10605;52.968;8.844;2022-08-23T05:19:50;7.78;;;3.10;;
20890;SDS011;10605;52.968;8.844;2022-08-23T05:22:15;7.00;;;3.45;;
20890;SDS011;10605;52.968;8.844;2022-08-23T05:24:41;8.80;;;3.10;;
20890;SDS011;10605;52.968;8.844;2022-08-23T05:27:07;6.43;;;2.85;;
20890;SDS011;10605;52.968;8.844;2022-08-23T05:29:34;7.22;;;3.53;;
20890;SDS011;10605;52.968;8.844;2022-08-23T05:31:59;4.50;;;3.15;;
20890;SDS011;10605;52.968;8.844;2022-08-23T05:34:25;5.03;;;3.08;;
20890;SDS011;10605;52.968;8.844;2022-08-23T05:36:51;8.57;;;3.22;;
20890;SDS011;10605;52.968;8.844;2022-08-23T05:39:18;7.80;;;3.40;;
20890;SDS011;10605;52.968;8.844;2022-08-23T05:41:44;11.05;;;3.10;;
20890;SDS011;10605;52.968;8.844;2022-08-23T05:44:10;9.65;;;2.72;;
20890;SDS011;10605;52.968;8.844;2022-08-23T05:46:36;4.47;;;2.80;;
20890;SDS011;10605;52.968;8.844;2022-08-23T05:49:02;4.07;;;2.95;;
20890;SDS011;10605;52.968;8.844;2022-08-23T05:51:29;2.95;;;2.67;;
20890;SDS011;10605;52.968;8.844;2022-08-23T05:53:58;6.18;;;2.53;;
20890;SDS011;10605;52.968;8.844;2022-08-23T05:56:29;5.90;;;2.90;;
20890;SDS011;10605;52.968;8.844;2022-08-23T05:58:58;5.65;;;2.63;;
20890;SDS011;10605;52.968;8.844;2022-08-23T06:01:27;3.25;;;2.33;;
20890;SDS011;10605;52.968;8.844;2022-08-23T06:03:53;2.90;;;2.45;;
20890;SDS011;10605;52.968;8.844;2022-08-23T06:06:19;6.22;;;2.97;;
20890;SDS011;10605;52.968;8.844;2022-08-23T06:08:46;6.72;;;2.55;;
20890;SDS011;10605;52.968;8.844;2022-08-23T06:11:14;3.95;;;2.30;;
20890;SDS011;10605;52.968;8.844;2022-08-23T06:13:43;5.90;;;2.35;;
20890;SDS011;10605;52.968;8.844;2022-08-23T06:16:11;5.03;;;2.50;;
20890;SDS011;10605;52.968;8.844;2022-08-23T06:18:38;7.72;;;2.10;;
20890;SDS011;10605;52.968;8.844;2022-08-23T06:21:05;4.60;;;2.08;;
20890;SDS011;10605;52.968;8.844;2022-08-23T06:23:33;4.15;;;2.22;;
20890;SDS011;10605;52.968;8.844;2022-08-23T06:25:59;2.53;;;1.92;;
20890;SDS011;10605;52.968;8.844;2022-08-23T06:28:27;3.05;;;2.10;;
20890;SDS011;10605;52.968;8.844;2022-08-23T06:30:54;3.58;;;2.65;;
20890;SDS011;10605;52.968;8.844;2022-08-23T06:33:21;7.93;;;2.65;;
20890;SDS011;10605;52.968;8.844;2022-08-23T06:35:48;14.18;;;2.65;;
20890;SDS011;10605;52.968;8.844;2022-08-23T06:38:15;4.63;;;2.40;;
20890;SDS011;10605;52.968;8.844;2022-08-23T06:40:42;12.80;;;2.80;;
20890;SDS011;10605;52.968;8.844;2022-08-23T06:43:07;7.72;;;2.75;;
20890;SDS011;10605;52.968;8.844;2022-08-23T06:45:33;4.78;;;2.47;;
20890;SDS011;10605;52.968;8.844;2022-08-23T06:47:59;7.97;;;2.17;;
20890;SDS011;10605;52.968;8.844;2022-08-23T06:50:25;5.68;;;2.50;;
20890;SDS011;10605;52.968;8.844;2022-08-23T06:52:50;4.95;;;2.17;;
20890;SDS011;10605;52.968;8.844;2022-08-23T06:55:19;3.55;;;2.00;;
20890;SDS011;10605;52.968;8.844;2022-08-23T06:57:44;3.28;;;1.65;;
20890;SDS011;10605;52.968;8.844;2022-08-23T07:00:10;4.68;;;2.40;;
20890;SDS011;10605;52.968;8.844;2022-08-23T07:02:36;7.30;;;2.70;;
20890;SDS011;10605;52.968;8.844;2022-08-23T07:05:02;11.27;;;2.78;;
20890;SDS011;10605;52.968;8.844;2022-08-23T07:07:29;7.45;;;2.05;;
20890;SDS011;10605;52.968;8.844;2022-08-23T07:09:54;4.53;;;2.03;;
20890;SDS011;10605;52.968;8.844;2022-08-23T07:12:20;2.83;;;1.95;;
20890;SDS011;10605;52.968;8.844;2022-08-23T07:14:46;4.18;;;1.90;;
20890;SDS011;10605;52.968;8.844;2022-08-23T07:17:12;2.80;;;1.80;;
20890;SDS011;10605;52.968;8.844;2022-08-23T07:19:38;2.78;;;2.00;;
20890;SDS011;10605;52.968;8.844;2022-08-23T07:22:07;4.90;;;1.80;;
20890;SDS011;10605;52.968;8.844;2022-08-23T07:24:33;4.30;;;2.08;;
20890;SDS011;10605;52.968;8.844;2022-08-23T07:26:59;3.72;;;1.77;;
20890;SDS011;10605;52.968;8.844;2022-08-23T07:29:30;3.03;;;1.50;;
20890;SDS011;10605;52.968;8.844;2022-08-23T07:31:56;10.38;;;1.77;;
20890;SDS011;10605;52.968;8.844;2022-08-23T07:34:22;8.27;;;2.30;;
20890;SDS011;10605;52.968;8.844;2022-08-23T07:36:50;10.40;;;2.38;;
20890;SDS011;10605;52.968;8.844;2022-08-23T07:39:16;5.95;;;1.67;;
20890;SDS011;10605;52.968;8.844;2022-08-23T07:41:43;12.55;;;2.50;;
20890;SDS011;10605;52.968;8.844;2022-08-23T07:44:10;6.57;;;1.65;;
20890;SDS011;10605;52.968;8.844;2022-08-23T07:46:38;3.45;;;2.10;;
20890;SDS011;10605;52.968;8.844;2022-08-23T07:49:06;5.53;;;2.10;;
20890;SDS011;10605;52.968;8.844;2022-08-23T07:51:33;3.47;;;1.95;;
20890;SDS011;10605;52.968;8.844;2022-08-23T07:54:01;5.43;;;1.58;;
20890;SDS011;10605;52.968;8.844;2022-08-23T07:56:28;5.07;;;1.92;;
20890;SDS011;10605;52.968;8.844;2022-08-23T07:58:54;7.63;;;2.30;;
20890;SDS011;10605;52.968;8.844;2022-08-23T08:01:25;7.28;;;1.70;;
20890;SDS011;10605;52.968;8.844;2022-08-23T08:03:52;3.53;;;1.52;;
20890;SDS011;10605;52.968;8.844;2022-08-23T08:08:47;5.97;;;1.98;;
20890;SDS011;10605;52.968;8.844;2022-08-23T08:11:14;10.07;;;1.90;;
20890;SDS011;10605;52.968;8.844;2022-08-23T08:13:47;7.20;;;2.10;;
20890;SDS011;10605;52.968;8.844;2022-08-23T08:18:50;5.28;;;1.80;;
20890;SDS011;10605;52.968;8.844;2022-08-23T08:21:18;3.53;;;1.88;;
20890;SDS011;10605;52.968;8.844;2022-08-23T08:23:43;2.28;;;1.60;;
20890;SDS011;10605;52.968;8.844;2022-08-23T08:26:10;9.32;;;1.75;;
20890;SDS011;10605;52.968;8.844;2022-08-23T08:28:36;2.67;;;1.98;;
20890;SDS011;10605;52.968;8.844;2022-08-23T08:31:03;4.20;;;1.65;;
20890;SDS011;10605;52.968;8.844;2022-08-23T08:33:29;5.93;;;1.90;;
20890;SDS011;10605;52.968;8.844;2022-08-23T08:35:56;3.63;;;1.58;;
20890;SDS011;10605;52.968;8.844;2022-08-23T08:38:23;8.23;;;1.95;;
20890;SDS011;10605;52.968;8.844;2022-08-23T08:40:52;4.72;;;1.83;;
20890;SDS011;10605;52.968;8.844;2022-08-23T08:49:02;2.38;;;1.75;;
20890;SDS011;10605;52.968;8.844;2022-08-23T08:54:16;11.07;;;1.90;;
20890;SDS011;10605;52.968;8.844;2022-08-23T08:56:46;3.88;;;1.60;;
20890;SDS011;10605;52.968;8.844;2022-08-23T08:59:21;4.63;;;1.35;;
20890;SDS011;10605;52.968;8.844;2022-08-23T09:01:51;3.35;;;1.88;;
20890;SDS011;10605;52.968;8.844;2022-08-23T09:04:17;5.57;;;1.55;;
20890;SDS011;10605;52.968;8.844;2022-08-23T09:09:49;6.15;;;1.95;;
20890;SDS011;10605;52.968;8.844;2022-08-23T09:15:21;4.40;;;1.95;;
20890;SDS011;10605;52.968;8.844;2022-08-23T09:17:52;4.97;;;1.45;;
20890;SDS011;10605;52.968;8.844;2022-08-23T09:20:21;8.55;;;2.35;;
20890;SDS011;10605;52.968;8.844;2022-08-23T09:22:55;12.13;;;2.00;;
20890;SDS011;10605;52.968;8.844;2022-08-23T09:25:30;8.82;;;2.15;;
20890;SDS011;10605;52.968;8.844;2022-08-23T09:27:55;4.60;;;1.65;;
20890;SDS011;10605;52.968;8.844;2022-08-23T09:30:21;4.30;;;1.52;;
20890;SDS011;10605;52.968;8.844;2022-08-23T09:33:15;2.65;;;1.50;;
20890;SDS011;10605;52.968;8.844;2022-08-23T09:36:34;7.40;;;1.60;;
20890;SDS011;10605;52.968;8.844;2022-08-23T09:38:49;3.83;;;1.92;;
20890;SDS011;10605;52.968;8.844;2022-08-23T09:41:31;3.38;;;1.15;;
20890;SDS011;10605;52.968;8.844;2022-08-23T09:43:56;6.78;;;1.70;;
20890;SDS011;10605;52.968;8.844;2022-08-23T09:46:27;3.72;;;1.60;;
20890;SDS011;10605;52.968;8.844;2022-08-23T09:48:55;3.30;;;1.80;;
20890;SDS011;10605;52.968;8.844;2022-08-23T09:51:36;2.85;;;1.60;;
20890;SDS011;10605;52.968;8.844;2022-08-23T09:56:35;6.22;;;1.48;;
20890;SDS011;10605;52.968;8.844;2022-08-23T10:01:50;6.97;;;1.35;;
20890;SDS011;10605;52.968;8.844;2022-08-23T10:04:21;20.45;;;2.00;;
20890;SDS011;10605;52.968;8.844;2022-08-23T10:09:52;10.15;;;1.80;;
20890;SDS011;10605;52.968;8.844;2022-08-23T10:12:18;4.90;;;1.70;;
20890;SDS011;10605;52.968;8.844;2022-08-23T10:14:45;3.58;;;1.60;;
20890;SDS011;10605;52.968;8.844;2022-08-23T10:23:05;8.65;;;2.08;;
20890;SDS011;10605;52.968;8.844;2022-08-23T10:25:54;4.63;;;1.42;;
20890;SDS011;10605;52.968;8.844;2022-08-23T10:34:17;3.80;;;1.65;;
20890;SDS011;10605;52.968;8.844;2022-08-23T10:36:56;4.18;;;1.75;;
20890;SDS011;10605;52.968;8.844;2022-08-23T10:39:52;8.45;;;1.33;;
20890;SDS011;10605;52.968;8.844;2022-08-23T10:45:37;3.42;;;1.30;;
20890;SDS011;10605;52.968;8.844;2022-08-23T10:50:57;3.25;;;1.30;;
20890;SDS011;10605;52.968;8.844;2022-08-23T10:53:38;7.32;;;1.13;;
20890;SDS011;10605;52.968;8.844;2022-08-23T10:56:11;4.05;;;1.30;;
20890;SDS011;10605;52.968;8.844;2022-08-23T10:58:52;1.42;;;0.98;;
20890;SDS011;10605;52.968;8.844;2022-08-23T11:04:16;2.65;;;1.40;;
20890;SDS011;10605;52.968;8.844;2022-08-23T11:06:48;3.25;;;1.70;;
20890;SDS011;10605;52.968;8.844;2022-08-23T11:14:40;5.53;;;0.85;;
20890;SDS011;10605;52.968;8.844;2022-08-23T11:17:11;4.13;;;1.50;;
20890;SDS011;10605;52.968;8.844;2022-08-23T11:24:48;5.18;;;1.42;;
20890;SDS011;10605;52.968;8.844;2022-08-23T11:29:52;3.15;;;1.10;;
20890;SDS011;10605;52.968;8.844;2022-08-23T11:37:46;1.70;;;1.10;;
20890;SDS011;10605;52.968;8.844;2022-08-23T11:40:15;5.32;;;1.15;;
20890;SDS011;10605;52.968;8.844;2022-08-23T11:43:12;6.10;;;1.35;;
20890;SDS011;10605;52.968;8.844;2022-08-23T11:45:50;4.53;;;1.05;;
20890;SDS011;10605;52.968;8.844;2022-08-23T11:53:40;3.80;;;0.90;;
20890;SDS011;10605;52.968;8.844;2022-08-23T12:04:56;3.08;;;1.02;;
20890;SDS011;10605;52.968;8.844;2022-08-23T12:07:41;2.47;;;0.85;;
20890;SDS011;10605;52.968;8.844;2022-08-23T12:10:09;3.60;;;1.13;;
20890;SDS011;10605;52.968;8.844;2022-08-23T12:12:38;5.68;;;1.00;;
20890;SDS011;10605;52.968;8.844;2022-08-23T12:15:09;3.38;;;0.95;;
20890;SDS011;10605;52.968;8.844;2022-08-23T12:23:15;5.55;;;0.93;;
20890;SDS011;10605;52.968;8.844;2022-08-23T12:25:24;6.00;;;1.17;;
20890;SDS011;10605;52.968;8.844;2022-08-23T12:28:35;3.03;;;0.90;;
20890;SDS011;10605;52.968;8.844;2022-08-23T12:41:50;2.70;;;0.80;;
20890;SDS011;10605;52.968;8.844;2022-08-23T12:44:20;1.70;;;0.90;;
20890;SDS011;10605;52.968;8.844;2022-08-23T12:46:47;6.97;;;1.00;;
20890;SDS011;10605;52.968;8.844;2022-08-23T12:49:30;4.03;;;1.08;;
20890;SDS011;10605;52.968;8.844;2022-08-23T12:51:59;2.88;;;1.10;;
20890;SDS011;10605;52.968;8.844;2022-08-23T12:54:43;3.35;;;1.23;;
20890;SDS011;10605;52.968;8.844;2022-08-23T12:57:16;6.10;;;0.90;;
20890;SDS011;10605;52.968;8.844;2022-08-23T12:59:55;3.90;;;0.93;;
20890;SDS011;10605;52.968;8.844;2022-08-23T13:02:29;0.98;;;0.75;;
20890;SDS011;10605;52.968;8.844;2022-08-23T13:05:03;1.58;;;1.00;;
20890;SDS011;10605;52.968;8.844;2022-08-23T13:07:36;1.30;;;0.93;;
20890;SDS011;10605;52.968;8.844;2022-08-23T13:10:06;2.92;;;0.85;;
20890;SDS011;10605;52.968;8.844;2022-08-23T13:12:33;8.95;;;1.10;;
20890;SDS011;10605;52.968;8.844;2022-08-23T13:15:00;2.70;;;1.00;;
20890;SDS011;10605;52.968;8.844;2022-08-23T13:22:34;4.30;;;1.15;;
20890;SDS011;10605;52.968;8.844;2022-08-23T13:32:42;1.73;;;1.17;;
20890;SDS011;10605;52.968;8.844;2022-08-23T13:35:23;8.32;;;1.38;;
20890;SDS011;10605;52.968;8.844;2022-08-23T13:46:17;1.70;;;1.10;;
20890;SDS011;10605;52.968;8.844;2022-08-23T13:48:45;4.63;;;1.10;;
20890;SDS011;10605;52.968;8.844;2022-08-23T13:54:08;4.60;;;0.88;;
20890;SDS011;10605;52.968;8.844;2022-08-23T13:56:38;6.70;;;1.10;;
20890;SDS011;10605;52.968;8.844;2022-08-23T14:01:48;3.33;;;1.27;;
20890;SDS011;10605;52.968;8.844;2022-08-23T14:04:14;2.78;;;1.10;;
20890;SDS011;10605;52.968;8.844;2022-08-23T14:06:40;4.53;;;1.10;;
20890;SDS011;10605;52.968;8.844;2022-08-23T14:09:05;2.58;;;0.85;;
20890;SDS011;10605;52.968;8.844;2022-08-23T14:11:31;1.00;;;0.80;;
20890;SDS011;10605;52.968;8.844;2022-08-23T14:13:58;7.45;;;1.10;;
20890;SDS011;10605;52.968;8.844;2022-08-23T14:16:28;5.95;;;1.30;;
20890;SDS011;10605;52.968;8.844;2022-08-23T14:18:58;2.33;;;1.10;;
20890;SDS011;10605;52.968;8.844;2022-08-23T14:21:25;3.58;;;1.38;;
20890;SDS011;10605;52.968;8.844;2022-08-23T14:23:53;3.88;;;0.80;;
20890;SDS011;10605;52.968;8.844;2022-08-23T14:26:18;3.85;;;1.17;;
20890;SDS011;10605;52.968;8.844;2022-08-23T14:28:45;4.47;;;1.40;;
20890;SDS011;10605;52.968;8.844;2022-08-23T14:31:12;2.78;;;1.23;;
20890;SDS011;10605;52.968;8.844;2022-08-23T14:33:38;4.22;;;1.50;;
20890;SDS011;10605;52.968;8.844;2022-08-23T14:36:04;5.90;;;1.25;;
20890;SDS011;10605;52.968;8.844;2022-08-23T14:38:30;6.60;;;1.13;;
20890;SDS011;10605;52.968;8.844;2022-08-23T14:40:57;4.97;;;1.45;;
20890;SDS011;10605;52.968;8.844;2022-08-23T14:43:26;2.63;;;1.30;;
20890;SDS011;10605;52.968;8.844;2022-08-23T14:45:52;4.85;;;1.20;;
20890;SDS011;10605;52.968;8.844;2022-08-23T14:48:18;3.45;;;1.05;;
20890;SDS011;10605;52.968;8.844;2022-08-23T14:50:43;3.42;;;0.95;;
20890;SDS011;10605;52.968;8.844;2022-08-23T14:53:11;5.13;;;1.00;;
20890;SDS011;10605;52.968;8.844;2022-08-23T14:55:38;4.38;;;1.05;;
20890;SDS011;10605;52.968;8.844;2022-08-23T14:58:05;2.92;;;1.42;;
20890;SDS011;10605;52.968;8.844;2022-08-23T15:00:32;1.83;;;1.05;;
20890;SDS011;10605;52.968;8.844;2022-08-23T15:02:59;8.80;;;1.42;;
20890;SDS011;10605;52.968;8.844;2022-08-23T15:05:28;3.63;;;1.10;;
20890;SDS011;10605;52.968;8.844;2022-08-23T15:07:53;10.55;;;1.38;;
20890;SDS011;10605;52.968;8.844;2022-08-23T15:10:19;3.60;;;0.90;;
20890;SDS011;10605;52.968;8.844;2022-08-23T15:12:46;2.08;;;1.27;;
20890;SDS011;10605;52.968;8.844;2022-08-23T15:15:14;3.65;;;1.10;;
20890;SDS011;10605;52.968;8.844;2022-08-23T15:17:54;6.82;;;1.30;;
20890;SDS011;10605;52.968;8.844;2022-08-23T15:20:24;2.85;;;1.30;;
20890;SDS011;10605;52.968;8.844;2022-08-23T15:22:52;4.68;;;0.90;;
20890;SDS011;10605;52.968;8.844;2022-08-23T15:25:17;3.88;;;1.20;;
20890;SDS011;10605;52.968;8.844;2022-08-23T15:27:43;6.75;;;1.15;;
20890;SDS011;10605;52.968;8.844;2022-08-23T15:30:12;1.35;;;1.05;;
20890;SDS011;10605;52.968;8.844;2022-08-23T15:32:39;2.10;;;1.10;;
20890;SDS011;10605;52.968;8.844;2022-08-23T15:35:06;3.38;;;1.20;;
20890;SDS011;10605;52.968;8.844;2022-08-23T15:37:32;2.78;;;1.13;;
20890;SDS011;10605;52.968;8.844;2022-08-23T15:39:58;4.28;;;1.20;;
20890;SDS011;10605;52.968;8.844;2022-08-23T15:42:24;2.22;;;1.13;;
20890;SDS011;10605;52.968;8.844;2022-08-23T15:44:51;2.58;;;1.40;;
20890;SDS011;10605;52.968;8.844;2022-08-23T15:47:22;1.45;;;1.30;;
20890;SDS011;10605;52.968;8.844;2022-08-23T15:49:53;1.20;;;1.10;;
20890;SDS011;10605;52.968;8.844;2022-08-23T15:52:19;5.07;;;1.05;;
20890;SDS011;10605;52.968;8.844;2022-08-23T15:54:45;7.18;;;1.02;;
20890;SDS011;10605;52.968;8.844;2022-08-23T15:57:15;1.35;;;1.10;;
20890;SDS011;10605;52.968;8.844;2022-08-23T15:59:43;1.58;;;1.10;;
20890;SDS011;10605;52.968;8.844;2022-08-23T16:02:10;2.88;;;0.88;;
20890;SDS011;10605;52.968;8.844;2022-08-23T16:04:35;3.30;;;1.48;;
20890;SDS011;10605;52.968;8.844;2022-08-23T16:07:05;5.88;;;1.13;;
20890;SDS011;10605;52.968;8.844;2022-08-23T16:09:32;5.82;;;0.93;;
20890;SDS011;10605;52.968;8.844;2022-08-23T16:11:59;2.10;;;1.00;;
20890;SDS011;10605;52.968;8.844;2022-08-23T16:14:25;3.83;;;1.30;;
20890;SDS011;10605;52.968;8.844;2022-08-23T16:16:52;2.58;;;1.13;;
20890;SDS011;10605;52.968;8.844;2022-08-23T16:19:58;1.98;;;1.30;;
20890;SDS011;10605;52.968;8.844;2022-08-23T16:22:29;3.85;;;1.10;;
20890;SDS011;10605;52.968;8.844;2022-08-23T16:24:55;5.60;;;1.50;;
20890;SDS011;10605;52.968;8.844;2022-08-23T16:27:21;3.22;;;1.27;;
20890;SDS011;10605;52.968;8.844;2022-08-23T16:29:46;1.02;;;0.90;;
20890;SDS011;10605;52.968;8.844;2022-08-23T16:32:12;1.25;;;1.15;;
20890;SDS011;10605;52.968;8.844;2022-08-23T16:34:38;5.68;;;1.20;;
20890;SDS011;10605;52.968;8.844;2022-08-23T16:37:04;5.82;;;1.33;;
20890;SDS011;10605;52.968;8.844;2022-08-23T16:39:31;4.60;;;1.20;;
20890;SDS011;10605;52.968;8.844;2022-08-23T16:42:02;4.78;;;1.10;;
20890;SDS011;10605;52.968;8.844;2022-08-23T16:44:29;5.15;;;1.10;;
20890;SDS011;10605;52.968;8.844;2022-08-23T16:46:56;6.57;;;1.20;;
20890;SDS011;10605;52.968;8.844;2022-08-23T16:49:22;1.83;;;0.95;;
20890;SDS011;10605;52.968;8.844;2022-08-23T16:51:58;6.63;;;1.35;;
20890;SDS011;10605;52.968;8.844;2022-08-23T16:54:24;3.42;;;1.10;;
20890;SDS011;10605;52.968;8.844;2022-08-23T16:56:52;4.25;;;1.33;;
20890;SDS011;10605;52.968;8.844;2022-08-23T16:59:18;2.78;;;1.08;;
20890;SDS011;10605;52.968;8.844;2022-08-23T17:01:45;7.57;;;1.45;;
20890;SDS011;10605;52.968;8.844;2022-08-23T17:04:14;5.75;;;1.30;;
20890;SDS011;10605;52.968;8.844;2022-08-23T17:06:41;3.58;;;1.45;;